Meteo4 di Emilio Bellavite Il primo osservatorio Meteo di Verona  
 
mercoledė 10 agosto 2022
 
 
dati in tempo reale
Di seguito i dati in tempo reale delle stazioni on line della rete di Meteo4. Cliccando sul link della stazione, ove presente, si accederà al sito web personale.
Stazioni online
Località Giorno Ora Temp. Umid. Relat. Dew Point Press. Atm. Velocità Vento Direz. Vento Precip. Temp.
Min
Temp.
Max
Abano (PD) 10/08/22 04.00 23.3 °C 58 % 14.5 °C 1018.4 hPa 1.6 Km/h NE 0.0 mm  23.3 °C 25.0 °C
Acquapendente (VT) 10/08/22 04.08 19.5 °C 77 % 15.4 °C 1016.5 hPa 0.0 Km/h SSW 0.0 mm  19.4 °C 21.0 °C
Acquaviva delle Fonti (BA) 10/08/22 04.08 21.9 °C 76 % 17.5 °C 1014.6 hPa 0.6 Km/h NW 0.0 mm  21.2 °C 22.2 °C
Agordo ARPAV (BL) 10/08/22 04.00 16.7 °C 94 % 15.7 °C  hPa 0.0 Km/h SW 0.0 mm  16.7 °C 18.0 °C
Ala (TN) 10/08/22 04.08 20.7 °C 64 % 13.6 °C 1018.3 hPa 1.5 Km/h SE 0.0 mm  20.8 °C 22.8 °C
Albisano (VR) 10/08/22 03.46 24.8 °C 45 % 11.9 °C 1019.2 hPa 3.4 Km/h E 0.0 mm  23.4 °C 24.8 °C
Alleghe (BL) 10/08/22 04.08 14.7 °C 79 % 11.1 °C 1010.2 hPa 0.0 Km/h E 0.0 mm  14.6 °C 16.8 °C
Ancona loc. Brecce Bianche (AN) 10/08/22 04.05 23.1 °C 70 % 17.3 °C 1018.0 hPa 2.5 Km/h NNE 0.0 mm  22.8 °C 25.0 °C
Arabba ARPAV (BL) 10/08/22 04.00 11.4 °C 89 % 9.7 °C  hPa 0.7 Km/h N 0.0 mm  11.4 °C 12.4 °C
Arbizzano di Negrar Zai (VR) 10/08/22 04.04 25.8 °C 45 % 13.0 °C 1018.0 hPa 12.3 Km/h NE 0.0 mm  22.8 °C 27.1 °C
Ardea (RM) 10/08/22 04.08 23.1 °C 72 % 17.8 °C 1013.9 hPa 0.4 Km/h N 0.0 mm  22.8 °C 23.9 °C
Arenzano (GE) 10/08/22 04.08 26.2 °C 56 % 16.7 °C 1017.1 hPa 3.2 Km/h NE 0.0 mm  25.8 °C 27.6 °C
Arquā Polesine (RO) 10/08/22 04.05 18.7 °C 88 % 16.6 °C 1020.0 hPa 0.0 Km/h - 0.0 mm  18.6 °C 22.0 °C
Arzignano loc. Castello (VI) 09/08/22 21.45 25.6 °C 63 % 18.0 °C 1015.5 hPa 3.2 Km/h W 0.0 mm  21.7 °C 33.3 °C
Arzignano Pugnello (VI) 10/08/22 04.05 21.7 °C 59 % 13.3 °C 1017.0 hPa 0.0 Km/h W 0.0 mm  21.7 °C 24.3 °C
Asiago aeroporto ARPAV (VI) 10/08/22 04.00 13.4 °C 85 % 10.9 °C 1022.8 hPa 2.2 Km/h NNW 0.0 mm  13.4 °C 17.0 °C
Auronzo ARPAV (BL) 10/08/22 04.00 11.1 °C 100 % 11.1 °C  hPa 0.0 Km/h WSW 0.0 mm  11.1 °C 13.6 °C
Avenza-Carrara (MS) 10/08/22 04.00 22.5 °C 70 % 16.8 °C 1015.9 hPa 1.6 Km/h NNW 0.0 mm  22.4 °C 25.1 °C
Avio (TN) 10/08/22 04.08 21.5 °C 74 % 16.7 °C 1019.8 hPa 0.0 Km/h W 0.0 mm  21.5 °C 24.1 °C
Badia Calavena loc. San Valentino (VR) 10/08/22 04.08 19.2 °C 57 % 10.4 °C 1016.1 hPa 12.9 Km/h NNW 0.0 mm  19.2 °C 21.2 °C
Balbido (TN) 10/08/22 04.05 18.9 °C 77 % 14.8 °C 1022.9 hPa 3.1 Km/h WNW 0.0 mm  18.8 °C 20.3 °C
Barcellona P.G. Centro (ME) 10/08/22 04.08 24.0 °C 75 % 19.3 °C 1013.1 hPa 6.4 Km/h SSW 0.0 mm  23.9 °C 25.3 °C
Barcellona Pozzo di Gotto (ME) 10/08/22 04.09 24.4 °C 74 % 19.5 °C 1014.4 hPa 4.7 Km/h SSW 0.0 mm  24.4 °C 25.8 °C
Bardolino (VR) 10/08/22 04.05 25.6 °C 42 % 11.7 °C 1011.9 hPa 6.4 Km/h NE 0.0 mm  24.4 °C 26.7 °C
Bassano del Grappa ARPAV (VI) 10/08/22 04.00 21.9 °C 61 % 14.0 °C  hPa 5.8 Km/h N 0.0 mm  21.9 °C 26.5 °C
Bellaria Igea Marina (RN) 10/08/22 04.08 20.1 °C 83 % 17.1 °C 1017.3 hPa 1.6 Km/h W 0.0 mm  20.1 °C 22.8 °C
Belluno Castion (BL) 10/08/22 04.00 17.4 °C 83 % 14.5 °C 1018.6 hPa 0.0 Km/h --- 0.0 mm  17.3 °C 21.0 °C
Belluno - aeroporto ARPAV (BL) 10/08/22 04.00 17.0 °C 89 % 15.2 °C 1021.5 hPa 5.4 Km/h ENE 0.0 mm  17.0 °C 19.0 °C
Bernate Ticino fraz. Casate (MI) 10/08/22 04.05 24.3 °C 65 % 17.3 °C 1017.8 hPa 0.0 Km/h SSE 0.0 mm  24.3 °C 25.3 °C
Besozzo (VA) 10/08/22 04.08 22.1 °C 83 % 19.0 °C 988.6 hPa 0.0 Km/h NNE 0.0 mm  21.8 °C 23.4 °C
Bibione ARPAV (VE) 10/08/22 04.00 25.5 °C 54 % 15.5 °C  hPa 11.2 Km/h ENE 0.0 mm  25.5 °C 26.5 °C
Bientina (PI) 10/08/22 04.05 24.1 °C 55 % 14.5 °C 1013.1 hPa 0.0 Km/h E 0.0 mm  23.4 °C 26.5 °C
Bitti (NU) 10/08/22 04.05 20.7 °C 66 % 14.1 °C 1011.5 hPa 3.6 Km/h SSW 0.0 mm  20.4 °C 21.6 °C
Bonorva (SS) 10/08/22 04.00 20.4 °C 70 % 14.7 °C 1015.0 hPa 0.0 Km/h --- 0.0 mm  20.4 °C 24.3 °C
Borgo Valsugana (TN) 10/08/22 04.05 20.6 °C 67 % 14.3 °C 1019.0 hPa 3.2 Km/h SSW 0.0 mm  20.5 °C 22.3 °C
Bosco Chiesanuova ARPAV (VR) 10/08/22 04.00 17.1 °C 51 % 6.9 °C  hPa 11.5 Km/h NNE 0.0 mm  17.1 °C 18.8 °C
Bovolenta ARPAV (PD) 10/08/22 04.00 21.4 °C  %  °C  hPa 0.0 Km/h 0.0 mm  21.4 °C 22.0 °C
Bovolone2 (VR) 10/08/22 04.05 22.2 °C 64 % 15.1 °C 1019.0 hPa 8.6 Km/h NE 0.0 mm  21.0 °C 23.3 °C
Brebbia (VA) 09/08/22 20.30 29.0 °C 55 % 19.0 °C 1016.1 hPa 4.8 Km/h S 0.0 mm  19.8 °C 33.4 °C
Breganze loc. Maragnole (VI) 10/08/22 04.09 19.7 °C 77 % 15.6 °C 1020.2 hPa 0.0 Km/h N 0.0 mm  19.8 °C 23.9 °C
Brendola ARPAV (VI) 10/08/22 04.00 23.4 °C 50 % 12.4 °C  hPa 4.3 Km/h NE 0.0 mm  23.4 °C 24.4 °C
Bresega (PD) 10/08/22 04.05 22.8 °C 68 % 16.7 °C 1017.9 hPa 0.0 Km/h N 0.0 mm  20.3 °C 22.8 °C
Brognoligo (VR) 10/08/22 04.04 25.3 °C 50 % 14.1 °C 1016.7 hPa 1.9 Km/h ENE 0.0 mm  24.8 °C 26.8 °C
Brolo c/da Parrazzā (ME) 10/08/22 04.05 24.6 °C 59 % 16.1 °C 1013.4 hPa 8.0 Km/h N 0.0 mm  23.9 °C 25.1 °C
Brustolé ARPAV (VI) 10/08/22 03.30 18.4 °C  %  °C  hPa 0.0 Km/h 0.0 mm  18.4 °C 20.3 °C
Budoia (PN) 10/08/22 04.00 22.3 °C 52 % 12.0 °C 1019.4 hPa 6.4 Km/h WNW 0.0 mm  22.1 °C 24.8 °C
Budoia Malga Campo (PN) 10/08/22 04.05 11.9 °C 80 % 8.6 °C 1023.1 hPa 0.0 Km/h N 0.0 mm  11.9 °C 14.1 °C
Calliano (TN) 10/08/22 04.08 22.3 °C 55 % 12.8 °C 1018.4 hPa 4.8 Km/h SSE 0.0 mm  22.3 °C 23.6 °C
Calmasino ARPAV (VR) 10/08/22 04.00 25.3 °C 41 % 11.1 °C 1019.1 hPa 13.3 Km/h ENE 0.0 mm  22.3 °C 25.7 °C
Caltabellotta (AG) 10/08/22 04.00 21.4 °C 77 % 17.2 °C 1011.9 hPa 0.0 Km/h WSW 0.0 mm  21.3 °C 22.3 °C
Campodarsego ARPAV (PD) 10/08/22 04.00 22.2 °C 60 % 14.1 °C  hPa 4.0 Km/h NE 0.0 mm  22.2 °C 24.7 °C
Campoformido (UD) 10/08/22 04.08 23.0 °C 48 % 11.4 °C 1019.3 hPa 0.0 Km/h NE 0.0 mm  23.0 °C 26.2 °C
Campomolon ARPAV (VI) 10/08/22 03.00 11.6 °C  %  °C  hPa 6.1 Km/h NNW 0.0 mm  11.6 °C 12.5 °C
Cansiglio - Tramedere ARPAV (BL) 10/08/22 04.00 12.2 °C 91 % 10.8 °C  hPa 1.4 Km/h SW 0.0 mm  12.2 °C 14.5 °C
Capanna Sinel (TN) 07/08/22 13.59 12.7 °C 100 % 12.7 °C 1022.1 hPa 2.2 Km/h WSW 13.4 mm  10.4 °C 14.1 °C
Cappella Maggiore (TV) 10/08/22 04.03 18.4 °C 71 % 13.1 °C 1014.9 hPa 0.7 Km/h WNW 0.0 mm  18.2 °C 21.0 °C
Caprarola Centro Storico (VT) 10/08/22 04.04 19.8 °C 69 % 13.9 °C 1015.0 hPa 2.6 Km/h W 0.0 mm  19.8 °C 21.1 °C
Caprile ARPAV (BL) 10/08/22 04.00 13.7 °C 90 % 12.1 °C  hPa 0.0 Km/h NNW 0.0 mm  13.7 °C 14.7 °C
Caprino loc. Platano ARPAV (VR) 08/08/22 06.00 21.0 °C 77 % 16.8 °C  hPa 2.2 Km/h NE 0.0 mm  20.3 °C 21.0 °C
Carceri Arzaron (PD) 10/08/22 04.04 21.5 °C 69 % 15.6 °C 1020.0 hPa 0.0 Km/h NNE 0.0 mm  19.6 °C 22.0 °C
Carezza (BZ) 10/08/22 03.54 13.2 °C 93 % 12.1 °C 1017.6 hPa 0.0 Km/h NNW 0.0 mm  10.9 °C 13.3 °C
Cartigliano (VI) 10/08/22 04.08 22.3 °C 52 % 12.0 °C 1019.4 hPa 0.0 Km/h NE 0.0 mm  22.3 °C 25.5 °C
Casaleone (VR) 10/08/22 04.05 20.6 °C 75 % 16.0 °C 1020.1 hPa 9.0 Km/h ENE 0.0 mm  19.7 °C 21.2 °C
Casera Coltrondo ARPAV (BL) 10/08/22 04.00 9.4 °C 83 % 6.7 °C  hPa 0.4 Km/h NNW 0.0 mm  9.4 °C 11.4 °C
Casera Doana ARPAV (BL) 10/08/22 04.00 10.6 °C 77 % 6.7 °C  hPa 1.4 Km/h NNW 0.0 mm  10.6 °C 11.9 °C
Casera Palantina ARPAV (BL) 10/08/22 04.00 12.2 °C 80 % 8.9 °C  hPa 1.8 Km/h E 0.0 mm  12.2 °C 13.7 °C
Casera Pian dei Grassi Col. Visetin (TV) 10/08/22 03.52 14.5 °C 66 % 7.8 °C 0.0 hPa 0.0 Km/h - 0.0 mm  14.5 °C 16.6 °C
Casotto (VI) 10/08/22 04.05 19.0 °C 77 % 14.9 °C 1018.5 hPa 0.0 Km/h ENE 0.0 mm  19.0 °C 20.7 °C
Cassone (VR) 10/08/22 03.53 24.1 °C 62 % 16.4 °C 1019.0 hPa 2.9 Km/h E 0.0 mm  23.6 °C 25.7 °C
Castana ARPAV (VI) 10/08/22 01.00 17.5 °C 100 % 17.5 °C  hPa 2.9 Km/h SW 0.0 mm  17.5 °C 17.5 °C
Castel d'Azzano (VR) 09/08/22 22.54 25.8 °C 56 % 16.3 °C 1019.1 hPa 0.0 Km/h --- 0.0 mm  23.6 °C 31.2 °C
Castelferro (AL) 10/08/22 04.08 20.0 °C 80 % 16.4 °C 1017.6 hPa 0.0 Km/h SW 0.0 mm  19.8 °C 23.0 °C
Castelfranco Veneto (TV) 10/08/22 03.40 22.4 °C 61 % 14.5 °C 1018.9 hPa 0.4 Km/h NE 0.0 mm  22.2 °C 24.7 °C
Castelfranco Veneto ARPAV (TV) 10/08/22 04.00 20.3 °C 76 % 15.9 °C  hPa 1.8 Km/h NNW 0.0 mm  19.6 °C 21.7 °C
Castelgomberto (VI) 09/08/22 07.41 24.4 °C 57 % 15.3 °C 1017.6 hPa 4.1 Km/h NNW 0.0 mm  20.0 °C 32.3 °C
Castelnovo Bariano ARPAV (RO) 10/08/22 04.00 18.9 °C 85 % 16.3 °C  hPa 0.0 Km/h NNE 0.0 mm  18.9 °C 20.1 °C
Castelnuovo del Garda ARPAV (VR) 08/08/22 06.00 21.1 °C 78 % 17.1 °C  hPa 4.3 Km/h N 0.0 mm  19.8 °C 22.2 °C
Castelnuovo V.C. (PI) 10/08/22 04.08 17.9 °C 76 % 13.7 °C 1016.3 hPa 0.6 Km/h SE 0.0 mm  17.9 °C 20.8 °C
Castiglione (VR) 10/08/22 04.05 25.7 °C 45 % 12.9 °C 1019.3 hPa 11.2 Km/h NE 0.0 mm  20.2 °C 26.6 °C
Castiglione del Lago (PG) 10/08/22 04.00 22.8 °C 72 % 17.5 °C 1018.2 hPa 8.0 Km/h N 0.0 mm  22.4 °C 23.2 °C
Castiglione della Pescaia Vaticino (GR) 10/08/22 04.05 24.7 °C 55 % 15.1 °C 1013.2 hPa 0.0 Km/h NNW 0.0 mm  24.5 °C 25.9 °C
Cavallino Treporti ARPAV (VE) 10/08/22 04.00 23.5 °C 59 % 15.0 °C 1019.0 hPa 2.9 Km/h N 0.0 mm  23.5 °C 26.9 °C
Cavaria con Premezzo (VA) 10/08/22 04.05 24.9 °C 63 % 17.4 °C 1017.9 hPa 1.6 Km/h NE 0.0 mm  23.8 °C 25.1 °C
Cavarzere ARPAV (VE) 10/08/22 04.00 20.3 °C 92 % 19.0 °C  hPa 5.4 Km/h NNE 0.0 mm  19.6 °C 20.7 °C
Cavazzale2 (VI) 10/08/22 03.14 23.3 °C 58 % 14.6 °C 1020.1 hPa 0.0 Km/h ESE 0.0 mm  23.3 °C 24.6 °C
Cerea (VR) 09/08/22 23.55 24.0 °C 64 % 16.8 °C 1018.3 hPa 3.2 Km/h NE 0.0 mm  21.4 °C 33.4 °C
Cerea2 (VR) 10/08/22 04.05 21.9 °C 67 % 15.5 °C 1020.3 hPa 6.0 Km/h NE 0.0 mm  21.3 °C 23.4 °C
Chiampo (VI) 10/08/22 04.06 20.8 °C 65 % 14.0 °C 1018.0 hPa 0.0 Km/h SW 0.0 mm  20.8 °C 22.6 °C
Chieti (CH) 10/08/22 04.05 20.4 °C 76 % 16.0 °C 1018.2 hPa 6.0 Km/h SSE 0.0 mm  19.9 °C 21.6 °C
Chioggia - Sant'Anna ARPAV (VE) 10/08/22 04.00 20.2 °C 96 % 19.5 °C  hPa 0.0 Km/h 0.0 mm  18.1 °C 20.2 °C
Chioggia Centro ARPAV (VE) 10/08/22 04.00 26.4 °C  %  °C  hPa 0.0 Km/h 0.0 mm  24.5 °C 26.4 °C
Cima Grappa (TV) 10/08/22 04.08 11.2 °C 78 % 7.5 °C 1021.3 hPa 0.0 Km/h ESE 0.0 mm  10.6 °C 12.1 °C
Cima Pradazzo ARPAV (BL) 10/08/22 03.00 9.1 °C 99 % 9.0 °C  hPa 3.6 Km/h NNW 0.0 mm  9.1 °C 9.4 °C
Cismon del Grappa loc. Corlo (VI) 10/08/22 04.09 20.9 °C 56 % 11.8 °C 1022.2 hPa 6.9 Km/h S 0.0 mm  20.9 °C 21.7 °C
Civita Castellana (VT) 10/08/22 04.05 20.2 °C 75 % 15.6 °C 1015.0 hPa 3.6 Km/h NNW 0.0 mm  19.6 °C 21.8 °C
Codroipo (UD) 10/08/22 01.57 22.6 °C 46 % 10.4 °C 1019.7 hPa 0.0 Km/h N 0.0 mm  22.6 °C 24.3 °C
Cogollo del Cengio (VI) 10/08/22 04.07 20.0 °C 70 % 14.4 °C 1019.6 hPa 5.8 Km/h NW 0.0 mm  20.0 °C 22.9 °C
Col Dei Baldi ARPAV (BL) 10/08/22 04.00 10.1 °C 95 % 9.3 °C 1019.5 hPa 0.0 Km/h SSW 0.0 mm  10.1 °C 11.8 °C
Col Indes - Tambre ARPAV (BL) 10/08/22 04.00 14.8 °C 70 % 9.4 °C  hPa 2.2 Km/h ENE 0.0 mm  14.8 °C 16.7 °C
Colle del Piccolo San Bernardo La Thuile (AO) 10/08/22 04.05 9.5 °C 93 % 8.4 °C 1017.1 hPa 1.6 Km/h NE 0.0 mm  9.4 °C 11.8 °C
Cologna Veneta Sant'Andrea (VR) 10/08/22 04.08 23.2 °C 61 % 15.2 °C 1018.6 hPa 4.8 Km/h E 0.0 mm  21.2 °C 23.9 °C
Colognola ai Colli (VR) 10/08/22 04.08 25.1 °C 47 % 13.0 °C 1019.2 hPa 0.0 Km/h SW 1000.0 mm  22.1 °C 26.3 °C
Conegliano ARPAV (TV) 10/08/22 04.00 23.5 °C 47 % 11.5 °C  hPa 2.9 Km/h N 0.0 mm  22.2 °C 24.8 °C
Conselice (RA) 10/08/22 03.59 20.8 °C 72 % 15.6 °C 1018.3 hPa 2.6 Km/h WNW 0.0 mm  20.6 °C 22.9 °C
Contrada Dosso Gervasio (VR) 10/08/22 04.00 18.3 °C 59 % 10.1 °C 1018.1 hPa 3.2 Km/h NNE 0.0 mm  18.3 °C 20.3 °C
Cornedo Vicentino loc. Muzzolon (VI) 10/08/22 04.04 19.3 °C 72 % 14.0 °C 1019.4 hPa 1.9 Km/h ENE 0.0 mm  19.2 °C 24.9 °C
Cortina d'Ampezzo - Gilardon ARPAV (BL) 10/08/22 04.00 12.1 °C 87 % 10.0 °C  hPa 2.2 Km/h NW 0.0 mm  12.1 °C 14.8 °C
Cosseria Lidora (SV) 10/08/22 04.00 20.7 °C 80 % 17.1 °C 1016.5 hPa 9.7 Km/h WNW 0.0 mm  19.9 °C 22.1 °C
Costa di Vittorio Veneto (TV) 10/08/22 03.54 20.9 °C 65 % 14.1 °C 1018.0 hPa 0.0 Km/h NNW 0.0 mm  20.9 °C 23.6 °C
Crespadoro ARPAV (VI) 10/08/22 04.00 15.8 °C 90 % 14.2 °C  hPa 4.7 Km/h WNW 0.0 mm  15.8 °C 17.7 °C
Crespano del Grappa ARPAV (VI) 10/08/22 04.00 19.9 °C 64 % 12.9 °C  hPa 3.2 Km/h NNW 0.0 mm  19.9 °C 20.7 °C
Crosara ARPAV (VI) 10/08/22 04.00 21.2 °C  %  °C  hPa 0.0 Km/h 0.0 mm  21.2 °C 23.5 °C
Desenzano (BS) 10/08/22 04.05 23.2 °C 61 % 15.3 °C 1018.3 hPa 0.0 Km/h NNE 0.0 mm  23.0 °C 24.3 °C
Dolcé ARPAV (VR) 08/08/22 06.00 21.1 °C 83 % 18.1 °C  hPa 8.3 Km/h NNE 0.0 mm  21.0 °C 21.6 °C
Domegge di Cadore ARPAV (BL) 10/08/22 04.00 15.4 °C 84 % 12.7 °C  hPa 3.2 Km/h WNW 0.0 mm  15.4 °C 18.1 °C
Dorno (PV) 10/08/22 04.09 22.7 °C 68 % 16.5 °C 1017.8 hPa 0.0 Km/h ENE 0.0 mm  22.7 °C 24.2 °C
Dossobuono (VR) 10/08/22 04.08 25.3 °C 50 % 14.1 °C 1018.6 hPa 14.5 Km/h ENE 0.0 mm  23.7 °C 25.9 °C
Eraclea ARPAV (VE) 10/08/22 04.00 18.1 °C 81 % 14.8 °C  hPa 2.9 Km/h NNW 0.0 mm  18.1 °C 20.7 °C
Erbezzo Passo Fittanze (VR) 10/08/22 04.00 14.4 °C 84 % 11.7 °C 1021.3 hPa 0.0 Km/h W 0.0 mm  13.9 °C 16.2 °C
Esine (BS) 10/08/22 04.04 21.0 °C 89 % 19.1 °C 1018.8 hPa 3.2 Km/h E 0.2 mm  20.8 °C 22.5 °C
Faida di Piné loc. Prada (TN) 10/08/22 04.03 14.7 °C 84 % 12.0 °C 1024.3 hPa 0.2 Km/h NE 0.0 mm  14.5 °C 16.8 °C
Falcade ARPAV (BL) 10/08/22 04.00 14.3 °C 93 % 13.2 °C  hPa 0.4 Km/h SSE 0.0 mm  14.3 °C 16.6 °C
Faloria ARPAV (BL) 10/08/22 04.00 8.3 °C 91 % 6.9 °C  hPa 2.9 Km/h SSE 0.0 mm  8.3 °C 9.9 °C
Falzč di Piave (TV) 09/08/22 20.48 26.1 °C 54 % 16.1 °C 1018.5 hPa 0.0 Km/h --- 0.0 mm  18.3 °C 33.3 °C
Faverghera ARPAV (BL) 10/08/22 04.00 11.7 °C 80 % 8.4 °C  hPa 5.4 Km/h NNE 0.0 mm  11.7 °C 12.8 °C
Feltre ARPAV (BL) 10/08/22 04.00 17.9 °C 100 % 17.9 °C  hPa 0.0 Km/h E 0.0 mm  17.9 °C 18.9 °C
Feltre Celarda (BL) 10/08/22 04.08 17.3 °C 93 % 16.1 °C 1020.3 hPa 0.0 Km/h NW 0.0 mm  17.2 °C 18.9 °C
Fener ARPAV (TV) 10/08/22 04.00 21.6 °C  %  °C  hPa 0.0 Km/h 0.0 mm  20.6 °C 21.6 °C
Ferrara di Monte Baldo (VR) 10/08/22 03.52 17.2 °C 67 % 11.0 °C 1006.3 hPa 1.0 Km/h NNE 0.0 mm  17.2 °C 19.3 °C
Fiavč loc. Ballino (TN) 10/08/22 04.05 18.1 °C 77 % 14.0 °C 1018.3 hPa 1.7 Km/h W 0.0 mm  18.0 °C 18.8 °C
Filo di Argenta (FE) 10/08/22 04.05 19.0 °C 85 % 16.4 °C 1019.1 hPa 3.7 Km/h W 0.0 mm  19.0 °C 22.6 °C
Fogliano Redipuglia (GO) 10/08/22 04.06 21.0 °C 51 % 10.5 °C 1019.7 hPa 0.0 Km/h W 0.0 mm  21.0 °C 23.7 °C
Foligno (PG) 10/08/22 04.00 22.3 °C 69 % 16.4 °C 1017.1 hPa 6.4 Km/h NE 0.0 mm  22.2 °C 23.5 °C
Follina ARPAV (TV) 10/08/22 04.00 16.3 °C 84 % 13.6 °C  hPa 0.4 Km/h N 0.0 mm  16.3 °C 18.9 °C
Fontanafredda (PN) 10/08/22 04.09 19.9 °C 69 % 14.1 °C 1019.1 hPa 3.7 Km/h ENE 0.0 mm  19.9 °C 22.1 °C
Fonte (TV) 10/08/22 04.05 19.4 °C 75 % 14.9 °C 1018.4 hPa 0.0 Km/h NE 0.0 mm  19.4 °C 23.2 °C
Forno di Zoldo - Campo ARPAV (BL) 10/08/22 04.00 14.3 °C 100 % 14.3 °C  hPa 0.0 Km/h S 0.0 mm  14.3 °C 15.9 °C
Fortogna ARPAV (BL) 10/08/22 04.00 17.9 °C  %  °C  hPa 0.0 Km/h 0.0 mm  17.9 °C 20.1 °C
Fossalta di Portogruaro ARPAV (VE) 10/08/22 04.00 19.1 °C 69 % 13.3 °C  hPa 2.2 Km/h N 0.0 mm  19.1 °C 21.4 °C
Fossone - Carrara (MS) 10/08/22 04.05 21.2 °C 74 % 16.4 °C 1011.7 hPa 1.0 Km/h NNE 0.0 mm  20.6 °C 24.1 °C
Fregona Malga Picotera (TV) 10/08/22 04.05 14.8 °C 69 % 9.1 °C 1019.4 hPa 2.0 Km/h NNE 0.0 mm  14.7 °C 17.2 °C
Fregona Osservatorio Astronomico Piadera (TV) 10/08/22 04.05 19.8 °C 61 % 12.1 °C 1021.9 hPa 3.2 Km/h NNW 0.0 mm  19.1 °C 22.7 °C
Fumane Contrada La Ca (VR) 10/08/22 03.45 22.7 °C 47 % 10.6 °C 1023.0 hPa 6.4 Km/h N 0.0 mm  22.4 °C 24.3 °C
Gaggiano (MI) 10/08/22 04.05 25.7 °C 56 % 16.2 °C 1018.6 hPa 4.8 Km/h ENE 0.0 mm  25.4 °C 26.9 °C
Gaiarine ARPAV (TV) 10/08/22 04.00 16.8 °C 90 % 15.1 °C  hPa 0.0 Km/h 0.0 mm  16.8 °C 20.1 °C
Gambellara (VI) 10/08/22 04.05 23.9 °C 51 % 13.2 °C 1020.0 hPa 2.6 Km/h ENE 0.0 mm  21.0 °C 24.8 °C
Gardolo (TN) 10/08/22 04.08 19.3 °C 76 % 15.0 °C 1018.7 hPa 2.7 Km/h ESE 0.0 mm  19.7 °C 24.4 °C
Genova (GE) 10/08/22 04.08 28.1 °C 42 % 13.9 °C 1018.9 hPa 0.0 Km/h N 0.0 mm  27.9 °C 29.3 °C
Genova Erzelli (GE) 10/08/22 04.08 26.2 °C 51 % 15.2 °C 1016.4 hPa 12.4 Km/h N 0.0 mm  25.7 °C 27.0 °C
Genova Oregina (GE) 10/08/22 04.08 26.2 °C 42 % 12.2 °C 1019.9 hPa 8.0 Km/h NE 0.0 mm  26.0 °C 27.4 °C
Gnirega (VR) 08/08/22 10.00 25.6 °C 60 % 17.2 °C 1016.3 hPa 0.0 Km/h SW 0.0 mm  21.4 °C 25.6 °C
Goito (MN) 10/08/22 04.04 22.0 °C 72 % 16.7 °C 1019.4 hPa 0.0 Km/h ESE 0.0 mm  21.5 °C 23.4 °C
Iglesias (CI) 10/08/22 04.06 23.5 °C 74 % 18.6 °C 1017.0 hPa 0.0 Km/h NNE 0.0 mm  23.3 °C 25.4 °C
Illasi ARPAV (VR) 10/08/22 04.00 24.1 °C 45 % 11.4 °C  hPa 10.8 Km/h NNE 0.0 mm  24.1 °C 26.3 °C
Isera loc. Reviano (TN) 10/08/22 04.09 23.6 °C 44 % 10.6 °C 1015.8 hPa 3.9 Km/h WSW 0.0 mm  21.6 °C 24.4 °C
Isola d'Elba Marina di Campo (LI) 10/08/22 03.45 24.1 °C 73 % 18.9 °C 568.7 hPa 0.0 Km/h --- 0.0 mm  24.1 °C 26.8 °C
Isola Vicentina ARPAV (VI) 10/08/22 04.00 21.5 °C  %  °C  hPa 0.0 Km/h 0.0 mm  21.5 °C 25.5 °C
Jesolo (VE) 10/08/22 04.06 20.8 °C 62 % 13.3 °C 1016.4 hPa 4.7 Km/h NNW 0.0 mm  20.8 °C 26.2 °C
Jesolo - Cortellazzo ARPAV (VE) 10/08/22 04.00 20.2 °C 65 % 13.4 °C  hPa 10.1 Km/h N 0.0 mm  20.1 °C 25.9 °C
Lattarico (CS) 09/08/22 22.20 22.7 °C 68 % 16.5 °C 1014.8 hPa 0.6 Km/h N 5.3 mm  20.7 °C 31.4 °C
Lazise Colā (VR) 10/08/22 04.08 24.8 °C 49 % 13.3 °C 1019.7 hPa 9.7 Km/h E 0.0 mm  18.8 °C 24.8 °C
Legnago (VR) 10/08/22 04.05 22.0 °C 70 % 16.1 °C 1018.9 hPa 0.0 Km/h ESE 0.0 mm  20.8 °C 23.2 °C
Legnago Aeroporto (VR) 10/08/22 04.05 20.8 °C 73 % 15.6 °C 1019.1 hPa 3.2 Km/h N 0.0 mm  20.3 °C 23.3 °C
Legnaro ARPAV (PD) 10/08/22 04.00 22.4 °C 59 % 14.0 °C  hPa 8.3 Km/h NNE 0.0 mm  22.2 °C 23.5 °C
Lesmo (MB) 10/08/22 04.05 23.6 °C 65 % 16.6 °C 1018.1 hPa 0.0 Km/h --- 0.0 mm  22.2 °C 25.2 °C
Loano (SV) 10/08/22 04.00 27.2 °C 57 % 18.0 °C 0.0 hPa 3.2 Km/h N 1000.0 mm  27.2 °C 29.8 °C
Lonigo (VI) 10/08/22 04.08 24.2 °C 51 % 13.4 °C 1018.7 hPa 6.5 Km/h NE 0.0 mm  23.8 °C 25.6 °C
Lonigo ARPAV (VI) 10/08/22 04.00 22.2 °C 59 % 13.8 °C  hPa 9.4 Km/h NNE 0.0 mm  22.2 °C 23.5 °C
Lugagnano (VR) 10/08/22 04.01 25.4 °C 47 % 13.3 °C 1018.9 hPa 6.6 Km/h ENE 0.0 mm  23.8 °C 25.9 °C
Lugugnana ARPAV (VE) 10/08/22 04.00 19.1 °C 70 % 13.5 °C  hPa 4.3 Km/h NNE 0.0 mm  19.1 °C 21.7 °C
Lusiana Sciessere (VI) 10/08/22 04.05 18.7 °C 60 % 10.8 °C 1019.6 hPa 0.0 Km/h NE 0.0 mm  18.7 °C 21.5 °C
Malcesine (VR) 10/08/22 04.04 24.6 °C 68 % 18.3 °C 1012.7 hPa 0.0 Km/h SSE 0.0 mm  24.6 °C 30.2 °C
Malcesine Navene (VR) 10/08/22 04.06 23.5 °C 67 % 17.2 °C 1020.3 hPa 3.3 Km/h SSE 0.0 mm  23.5 °C 25.6 °C
Malga Ciapela ARPAV (BL) 10/08/22 04.00 11.9 °C  %  °C  hPa 0.0 Km/h 0.0 mm  11.9 °C 12.3 °C
Malga Dossioli (TN) 10/08/22 04.05 12.8 °C 85 % 10.3 °C 863.7 hPa 13.3 Km/h NNE 0.0 mm  12.1 °C 15.2 °C
Malga Larici ARPAV (VI) 10/08/22 04.00 12.2 °C 74 % 7.7 °C  hPa 1.8 Km/h NE 0.0 mm  12.2 °C 14.0 °C
Malga Losch ARPAV (BL) 10/08/22 04.00 11.6 °C 86 % 9.3 °C  hPa 0.0 Km/h N 0.0 mm  11.6 °C 12.4 °C
Malga Nardis (TN) 10/08/22 04.04 12.9 °C 91 % 11.5 °C 1016.7 hPa 17.0 Km/h WSW 0.0 mm  12.4 °C 14.3 °C
Malnate San Salvatore (VA) 10/08/22 04.00 20.7 °C 85 % 18.1 °C 1018.2 hPa 0.0 Km/h --- 0.0 mm  20.3 °C 22.1 °C
Malo ARPAV (VI) 10/08/22 04.00 22.8 °C 62 % 15.1 °C 1020.5 hPa 4.0 Km/h NNW 0.0 mm  22.8 °C 25.6 °C
Marano di Valpolicella ARPAV (VR) 10/08/22 04.00 23.7 °C 42 % 10.0 °C  hPa 4.0 Km/h NNE 0.0 mm  23.7 °C 25.1 °C
Marcellise (VR) 10/08/22 04.05 23.5 °C 47 % 11.5 °C 1019.6 hPa 31.7 Km/h NE 0.0 mm  23.4 °C 25.5 °C
Margone (TN) 10/08/22 04.05 17.4 °C 80 % 14.0 °C 1019.9 hPa 2.0 Km/h NNW 0.0 mm  17.4 °C 18.8 °C
Marineo (PA) 10/08/22 04.09 21.9 °C 77 % 17.7 °C 1012.9 hPa 0.0 Km/h SSE 0.0 mm  21.9 °C 23.4 °C
Marmolada - Punta Rocca ARPAV (BL) 10/08/22 04.00 2.4 °C  %  °C  hPa 23.0 Km/h ENE 0.0 mm  2.4 °C 3.1 °C
Marostica Valle San Floriano (VI) 10/08/22 04.05 20.9 °C 60 % 12.8 °C 1020.0 hPa 0.0 Km/h SE 0.0 mm  20.9 °C 23.8 °C
Marta (VT) 10/08/22 04.05 22.8 °C 72 % 17.5 °C 1017.1 hPa 16.2 Km/h N 0.0 mm  22.7 °C 24.4 °C
Martignano (TN) 10/08/22 04.08 22.1 °C 65 % 15.2 °C 1017.4 hPa 0.0 Km/h NE 0.0 mm  22.1 °C 24.1 °C
Maso Covel (TN) 10/08/22 04.06 20.1 °C 54 % 10.5 °C 934.8 hPa 6.8 Km/h SE 0.0 mm  19.9 °C 21.9 °C
Merlara (PD) 10/08/22 04.00 19.6 °C 78 % 15.7 °C 1017.6 hPa 4.8 Km/h ENE 0.0 mm  16.9 °C 19.6 °C
Miglionico (MT) 10/08/22 04.05 20.2 °C 81 % 16.9 °C 1012.1 hPa 19.3 Km/h NW 0.0 mm  18.4 °C 20.7 °C
Minerbe (VR) 10/08/22 04.05 21.8 °C 63 % 14.4 °C 1019.6 hPa 10.4 Km/h NE 0.0 mm  20.3 °C 22.3 °C
Miola di Piné (TN) 10/08/22 04.06 17.7 °C 69 % 11.9 °C 1018.9 hPa 2.6 Km/h E 0.0 mm  17.6 °C 19.3 °C
Miola di Piné loc. Costalta (TN) 10/08/22 04.05 11.3 °C 89 % 9.5 °C 1021.1 hPa 5.6 Km/h SE 0.0 mm  11.2 °C 13.0 °C
Misurina ARPAV (BL) 10/08/22 04.00 8.9 °C 92 % 7.7 °C  hPa 3.6 Km/h N 0.0 mm  8.9 °C 11.9 °C
Mogliano Veneto ARPAV (TV) 10/08/22 04.00 21.4 °C 62 % 13.8 °C  hPa 2.5 Km/h NNE 0.0 mm  21.4 °C 24.1 °C
Molina (VR) 10/08/22 04.08 16.0 °C 72 % 11.0 °C 1018.7 hPa 0.0 Km/h N 0.0 mm  16.0 °C 18.9 °C
Molini ARPAV (VI) 10/08/22 04.00 16.7 °C 74 % 12.0 °C  hPa 0.0 Km/h 0.0 mm  16.7 °C 19.1 °C
Moneglia loc. Casale (GE) 10/08/22 04.06 26.8 °C 47 % 14.5 °C 1017.7 hPa 0.0 Km/h NW 0.0 mm  25.9 °C 28.3 °C
Mongrando San Michele (BI) 07/08/22 20.45 23.0 °C 72 % 17.7 °C 1014.7 hPa 0.0 Km/h NE 6.0 mm  18.7 °C 28.9 °C
Montagna in Valtellina (SO) 10/08/22 04.08 22.9 °C 74 % 18.0 °C 1018.1 hPa 0.0 Km/h NE 0.0 mm  22.9 °C 25.3 °C
Monte Baldo Nord ARPAV (VR) 10/08/22 04.00 12.5 °C 91 % 11.1 °C 1020.6 hPa 19.1 Km/h WSW 0.0 mm  12.5 °C 14.0 °C
Monte Cesen ARPAV (TV) 10/08/22 04.00 12.9 °C 72 % 8.0 °C  hPa 8.3 Km/h ESE 0.0 mm  12.8 °C 13.3 °C
Monte Cherz ARPAV (BL) 10/08/22 04.00 10.2 °C 95 % 9.4 °C  hPa 3.2 Km/h E 0.0 mm  9.5 °C 11.8 °C
Monte Lisser ARPAV (VI) 10/08/22 04.00 13.4 °C 70 % 8.0 °C 1021.1 hPa 7.6 Km/h SW 0.0 mm  13.4 °C 15.5 °C
Monte Piana ARPAV (BL) 10/08/22 03.00 8.4 °C 88 % 6.5 °C  hPa 2.2 Km/h SSW 0.0 mm  8.4 °C 9.7 °C
Monte Rufeno (VT) 10/08/22 04.09 29.8 °C 99 % 29.6 °C 1009.1 hPa 14.8 Km/h NNE 0.0 mm  29.3 °C 29.8 °C
Monte Summano ARPAV (VI) 10/08/22 04.00 20.0 °C 53 % 10.1 °C  hPa 0.0 Km/h 0.0 mm  20.0 °C 22.3 °C
Monte Tomba ARPAV (VR) 10/08/22 04.00 12.5 °C 73 % 7.8 °C  hPa 7.6 Km/h E 0.0 mm  12.4 °C 14.1 °C
Montebelluna Loc. Contea ARPAV (TV) 10/08/22 04.00 22.2 °C  %  °C  hPa 0.0 Km/h 0.0 mm  21.8 °C 24.5 °C
Montecchio Maggiore Sant'Urbano (VI) 10/08/22 03.54 24.1 °C 51 % 13.4 °C 1018.7 hPa 12.5 Km/h NNE 0.0 mm  23.9 °C 25.9 °C
Montecchio Precalcino ARPAV (VI) 10/08/22 04.00 22.2 °C 57 % 13.3 °C  hPa 0.7 Km/h NW 0.0 mm  22.2 °C 25.7 °C
Montegalda ARPAV (VI) 10/08/22 04.00 21.4 °C 67 % 15.0 °C  hPa 3.2 Km/h N 0.0 mm  21.4 °C 24.4 °C
Monti Alti di Ornella ARPAV (BL) 10/08/22 04.00 9.1 °C 97 % 8.6 °C  hPa 0.4 Km/h N 0.0 mm  9.1 °C 10.5 °C
Montorio (VR) 10/08/22 04.04 26.1 °C 47 % 13.9 °C 1020.7 hPa 18.1 Km/h ENE 0.0 mm  24.3 °C 27.7 °C
Montorso Vicentino (VI) 10/08/22 04.08 21.9 °C 55 % 12.5 °C 1018.8 hPa 1.6 Km/h NNE 0.0 mm  21.8 °C 23.7 °C
Morbegno (SO) 10/08/22 04.09 23.6 °C 70 % 17.8 °C 1020.6 hPa 1.6 Km/h WNW 0.0 mm  23.6 °C 25.8 °C
Musigliano (PI) 10/08/22 04.04 26.4 °C 45 % 13.5 °C 1016.6 hPa 5.0 Km/h 0.0 mm  25.0 °C 26.8 °C
Nervesa Della Battaglia ARPAV (TV) 10/08/22 04.00 20.9 °C  %  °C  hPa 0.0 Km/h 0.0 mm  20.9 °C 23.9 °C
Nichelino (TO) 10/08/22 04.00 25.6 °C 67 % 19.0 °C 1020.2 hPa 9.7 Km/h NNW 0.0 mm  25.6 °C 27.5 °C
Noventa di Piave - Grassaga ARPAV (VE) 10/08/22 04.00 21.0 °C 68 % 14.9 °C  hPa 0.0 Km/h 0.0 mm  21.0 °C 22.1 °C
Novezzina (VR) 10/08/22 03.58 13.8 °C 82 % 10.8 °C 1015.8 hPa 6.4 Km/h NNW 0.0 mm  13.8 °C 16.1 °C
Oristano (OR) 10/08/22 04.09 23.2 °C 74 % 18.3 °C 1014.4 hPa 2.2 Km/h NNE 0.0 mm  23.1 °C 26.1 °C
Ortonovo (SP) 10/08/22 04.05 24.2 °C 46 % 11.8 °C 1014.6 hPa 8.0 Km/h NE 0.0 mm  23.5 °C 25.0 °C
Orvieto (TR) 08/08/22 16.16 25.4 °C 65 % 18.3 °C 1015.4 hPa 9.1 Km/h SW 7.2 mm  21.1 °C 37.4 °C
Ospedaletto Euganeo ARPAV (PD) 10/08/22 04.00 23.7 °C 58 % 14.9 °C  hPa 6.5 Km/h NNE 0.0 mm  20.9 °C 24.8 °C
Ovaro loc. Liariis (UD) 10/08/22 03.50 16.3 °C 73 % 11.5 °C 1020.5 hPa 1.6 Km/h NW 0.0 mm  16.1 °C 17.8 °C
Pace del Mela (ME) 10/08/22 04.04 23.5 °C 82 % 20.2 °C 1013.8 hPa 1.2 Km/h S 0.0 mm  23.5 °C 24.0 °C
Padergnone (TN) 10/08/22 04.00 19.8 °C 87 % 17.6 °C 1018.6 hPa 0.0 Km/h NNW 0.0 mm  19.8 °C 21.4 °C
Palų di Zevio (VR) 10/08/22 04.05 22.6 °C 62 % 14.9 °C 1019.4 hPa 11.5 Km/h E 0.0 mm  17.3 °C 23.1 °C
Parella (TO) 10/08/22 04.04 23.8 °C 72 % 18.4 °C 1018.6 hPa 0.0 Km/h NW 0.0 mm  23.8 °C 25.4 °C
Passo Campogrosso ARPAV (VI) 10/08/22 04.00 12.9 °C 72 % 8.0 °C  hPa 13.0 Km/h SE 0.0 mm  12.9 °C 15.1 °C
Passo Falzarego ARPAV (BL) 10/08/22 04.00 9.1 °C 97 % 8.6 °C 1021.4 hPa 1.4 Km/h NW 0.0 mm  9.1 °C 10.6 °C
Passo Monte Croce Comelico ARPAV (BL) 10/08/22 04.00 8.5 °C 90 % 7.0 °C  hPa 2.2 Km/h WNW 0.0 mm  8.5 °C 10.4 °C
Passo Santa Caterina ARPAV (VI) 10/08/22 04.00 17.5 °C 62 % 10.1 °C  hPa 3.6 Km/h E 0.0 mm  17.4 °C 19.0 °C
Pastrengo (VR) 10/08/22 02.17 24.8 °C 48 % 13.0 °C 1021.0 hPa 0.0 Km/h 0.0 mm  23.9 °C 24.8 °C
Pastrengo Corné (VR) 10/08/22 04.08 24.6 °C 46 % 12.2 °C 1016.1 hPa 6.5 Km/h E 0.0 mm  22.4 °C 25.3 °C
Pecetto Torinese (TO) 10/08/22 04.05 23.8 °C 66 % 17.1 °C 1017.5 hPa 21.0 Km/h N 0.0 mm  23.8 °C 24.6 °C
Pedara (CT) 10/08/22 04.05 16.9 °C 80 % 13.4 °C 1011.2 hPa 0.0 Km/h --- 0.0 mm  16.9 °C 18.7 °C
Pedemonte (VR) 10/08/22 04.05 24.8 °C 47 % 12.7 °C 1018.3 hPa 0.0 Km/h N 0.0 mm  22.7 °C 25.6 °C
Perarolo ARPAV (BL) 10/08/22 04.00 15.7 °C 99 % 15.5 °C  hPa 0.7 Km/h SE 0.0 mm  15.7 °C 17.7 °C
Perugia San Mariano (PG) 10/08/22 04.05 20.7 °C 72 % 15.5 °C 1018.0 hPa 4.5 Km/h NE 0.0 mm  20.5 °C 23.1 °C
Pescantina (VR) 10/08/22 04.05 25.3 °C 43 % 11.8 °C 1020.4 hPa 2.9 Km/h ENE 0.0 mm  22.7 °C 26.4 °C
Peschiera del Garda (VR) 10/08/22 04.04 24.2 °C 49 % 12.8 °C 1018.4 hPa 3.1 Km/h ENE 0.0 mm  23.3 °C 24.3 °C
Peschiera del Garda ARPAV (VR) 10/08/22 04.00 24.1 °C 49 % 12.7 °C  hPa 6.1 Km/h E 0.0 mm  22.7 °C 24.3 °C
Pian Cansiglio Agriturismo Le Code (BL) 10/08/22 03.57 10.5 °C 92 % 9.3 °C 0.0 hPa 0.0 Km/h - 0.0 mm  10.5 °C 14.2 °C
Pian Cansiglio Loc. Casera Le Rotte (TV) 10/08/22 04.05 13.3 °C 82 % 10.3 °C 1019.1 hPa 10.8 Km/h SW 0.0 mm  13.0 °C 17.6 °C
Pian Cansiglio Loc. I Bech - Le Code (BL) 10/08/22 04.02 8.3 °C 100 % 8.3 °C 0.0 hPa 0.0 Km/h - 0.0 mm  8.3 °C 11.3 °C
Pian Cansiglio Loc. Valmenera (BL) 10/08/22 04.04 6.8 °C 96 % 6.2 °C 0.0 hPa 0.0 Km/h - 0.0 mm  6.8 °C 9.8 °C
Pian Cansiglio Malga Col dei S'cios (PN) 10/08/22 03.54 14.1 °C 75 % 9.1 °C 0.0 hPa 0.0 Km/h - 0.0 mm  13.9 °C 15.6 °C
Pian Cansiglio Malga Filippon (BL) 10/08/22 04.05 10.3 °C 93 % 9.2 °C 1017.7 hPa 0.0 Km/h N 0.0 mm  10.3 °C 13.9 °C
Pian Cansiglio Rifugio Carlo e Massimo Semenza - CAI (BL) 10/08/22 04.01 9.1 °C 80 % 5.8 °C 0.0 hPa 0.0 Km/h - 0.0 mm  9.1 °C 9.9 °C
Piana di Marcesina - Rendole ARPAV (VI) 10/08/22 04.00 11.5 °C 85 % 9.1 °C  hPa 1.8 Km/h N 0.0 mm  11.5 °C 15.9 °C
Pila Valsesia (VC) 10/08/22 04.00 17.6 °C 94 % 16.6 °C 1017.7 hPa 0.0 Km/h --- 0.2 mm  17.6 °C 19.9 °C
Piovā Massaia (AT) 10/08/22 04.08 23.5 °C 72 % 18.2 °C 1018.2 hPa 1.5 Km/h NNE 0.0 mm  23.4 °C 25.2 °C
Piraino contr. Fiumara (ME) 10/08/22 04.00 22.7 °C 72 % 17.4 °C 1014.0 hPa 3.0 Km/h NE 0.0 mm  22.7 °C 24.2 °C
Pisa zona I Passi (PI) 10/08/22 04.09 25.8 °C 52 % 15.2 °C 1016.5 hPa 12.9 Km/h NE 0.0 mm  24.7 °C 26.6 °C
Pocenia (UD) 10/08/22 04.05 16.7 °C 87 % 14.5 °C 1020.0 hPa 0.0 Km/h NNE 0.0 mm  16.7 °C 20.7 °C
Pomezia (RM) 10/08/22 04.08 21.8 °C 77 % 17.6 °C 1013.3 hPa 8.0 Km/h NW 0.0 mm  21.8 °C 24.8 °C
Ponte di Piave ARPAV (TV) 10/08/22 04.00 20.4 °C 59 % 12.1 °C  hPa 5.4 Km/h NE 0.0 mm  19.1 °C 20.4 °C
Ponte San Pellegrino (MO) 10/08/22 04.07 19.8 °C 78 % 15.8 °C 1020.3 hPa 0.0 Km/h WSW 0.0 mm  19.7 °C 23.5 °C
Pontedassio fraz. Bestagno (IM) 10/08/22 04.00 23.7 °C 65 % 16.7 °C 1016.4 hPa 4.8 Km/h SSE 0.0 mm  23.7 °C 26.2 °C
Pordenone (PN) 10/08/22 03.55 23.3 °C 51 % 12.6 °C 1018.4 hPa 1.6 Km/h ENE 0.0 mm  23.3 °C 25.8 °C
Porto Tolle - Pradon ARPAV (RO) 10/08/22 04.00 18.8 °C 100 % 18.8 °C 1019.5 hPa 1.4 Km/h NNW 0.0 mm  18.8 °C 20.0 °C
Portogruaro - Lison ARPAV (VE) 10/08/22 04.00 19.7 °C 64 % 12.7 °C  hPa 4.7 Km/h N 0.0 mm  19.7 °C 22.0 °C
Posina loc. Contrā Boni (VI) 10/08/22 04.05 17.2 °C 69 % 11.5 °C 1023.0 hPa 0.0 Km/h NNE 0.0 mm  17.2 °C 21.7 °C
Pozzolo Formigaro (AL) 10/08/22 04.08 21.3 °C 0 % -36.4 °C 1019.1 hPa 2.2 Km/h SE 0.0 mm  21.3 °C 23.2 °C
Pozzonovo (PD) 10/08/22 03.56 20.9 °C 72 % 15.7 °C 1018.7 hPa 6.2 Km/h N 0.0 mm  20.4 °C 21.9 °C
Pray (BI) 10/08/22 04.05 19.6 °C 1 % -38.3 °C 1018.7 hPa 0.0 Km/h --- 0.0 mm  19.6 °C 21.2 °C
Quarrata Loc. Caserana (PT) 10/08/22 04.05 24.7 °C 66 % 17.8 °C 1017.0 hPa 1.7 Km/h SE 0.0 mm  24.7 °C 26.4 °C
Ra Valles ARPAV (BL) 10/08/22 04.00 6.1 °C 100 % 6.1 °C  hPa 1.1 Km/h SE 0.0 mm  6.1 °C 7.0 °C
Recoaro Mille ARPAV (VI) 10/08/22 04.00 16.5 °C 63 % 9.4 °C  hPa 3.6 Km/h NE 0.0 mm  16.5 °C 18.4 °C
Riccione (RN) 10/08/22 04.08 26.8 °C 60 % 18.4 °C 1016.2 hPa 25.7 Km/h NNE 0.0 mm  22.8 °C 27.1 °C
Rifugio Altissimo Damiano Chiesa (TN) 10/08/22 04.06 9.7 °C 91 % 8.3 °C 803.1 hPa 11.5 Km/h WNW 0.0 mm  9.7 °C 11.6 °C
Rifugio Castelberto (VR) 10/08/22 04.10 13.9 °C 78 % 10.2 °C 1019.5 hPa 3.0 Km/h SW 0.0 mm  13.8 °C 17.5 °C
Rifugio Citta di Fiume (BL) 10/08/22 04.08 11.4 °C 86 % 9.2 °C 1017.8 hPa 0.0 Km/h NE 0.0 mm  11.3 °C 13.1 °C
Rifugio Cittā di Vittorio Veneto (TV) 10/08/22 04.00 12.4 °C 73 % 7.8 °C 0.0 hPa 0.0 Km/h - 0.0 mm  12.3 °C 14.1 °C
Rifugio la Guardia ARPAV (VI) 10/08/22 04.00 14.7 °C 65 % 8.2 °C  hPa 5.0 Km/h NNW 0.0 mm  14.7 °C 18.1 °C
Rifugio Primaneve (VR) 10/08/22 04.02 12.8 °C 84 % 10.2 °C 1020.1 hPa 0.0 Km/h N 0.0 mm  11.3 °C 13.8 °C
Rimini (RN) 10/08/22 04.00 27.1 °C 52 % 16.4 °C 1018.3 hPa 0.0 Km/h N 0.0 mm  23.2 °C 27.1 °C
Rivalta sul Mincio (MN) 10/08/22 04.02 22.4 °C 69 % 16.4 °C 1018.2 hPa 9.5 Km/h ENE 0.0 mm  22.0 °C 22.9 °C
Rocca Priora (RM) 10/08/22 03.50 20.0 °C 76 % 15.6 °C 1016.6 hPa 8.0 Km/h N 0.0 mm  19.2 °C 20.2 °C
Roncā (VR) 10/08/22 03.54 23.4 °C 52 % 13.0 °C 1028.5 hPa 1.4 Km/h N 0.0 mm  23.4 °C 26.0 °C
Ronciglione Centro (VT) 10/08/22 04.09 20.8 °C 69 % 14.9 °C 1016.2 hPa 3.2 Km/h NNE 0.0 mm  20.8 °C 21.9 °C
Ronciglione Poggio Cavaliere (VT) 10/08/22 04.05 19.1 °C 73 % 14.1 °C 1018.9 hPa 1.2 Km/h W 0.0 mm  19.1 °C 20.6 °C
Ronciglione - Ponte Cuzzoli (VT) 10/08/22 04.09 20.3 °C 71 % 14.9 °C 1015.6 hPa 0.0 Km/h W 0.0 mm  19.7 °C 21.6 °C
Rosā ARPAV (VI) 10/08/22 04.00 22.4 °C 52 % 12.1 °C  hPa 0.7 Km/h NNE 0.0 mm  22.4 °C 25.2 °C
Rosolina - Po di Tramontana ARPAV (RO) 10/08/22 04.00 20.3 °C 97 % 19.8 °C  hPa 9.0 Km/h SE 0.0 mm  20.1 °C 20.8 °C
Rossano Veneto (VI) 09/08/22 09.07 26.1 °C 56 % 16.7 °C 1019.3 hPa 4.8 Km/h NE 0.0 mm  20.9 °C 26.1 °C
Roverchiara ARPAV (VR) 10/08/22 04.00 17.7 °C 99 % 17.5 °C  hPa 6.1 Km/h NNE 0.0 mm  17.7 °C 19.8 °C
Rovina di Cancia ARPAV (BL) 10/08/22 04.00 13.1 °C  %  °C  hPa 0.0 Km/h 0.0 mm  13.1 °C 15.4 °C
S. Giovanni Ilarione2 (VR) 10/08/22 04.04 22.6 °C 56 % 13.4 °C 1018.5 hPa 0.0 Km/h --- 0.0 mm  21.7 °C 24.1 °C
S. Giovanni Lupatoto (VR) 10/08/22 03.50 25.1 °C 52 % 14.5 °C 1019.7 hPa 0.0 Km/h ESE 0.0 mm  23.2 °C 25.3 °C
S. Giovanni Rotondo (FG) 10/08/22 04.08 21.5 °C 83 % 18.5 °C 1014.1 hPa 32.2 Km/h NW 0.0 mm  21.0 °C 21.6 °C
S. Lorenzo di Vittorio Veneto (TV) 10/08/22 04.04 21.8 °C 56 % 12.5 °C 1018.0 hPa 0.5 Km/h NW 0.0 mm  21.7 °C 24.3 °C
S. Lorenzo Nuovo (VT) 10/08/22 04.05 19.8 °C 74 % 15.0 °C 1017.6 hPa 17.6 Km/h N 0.0 mm  19.8 °C 21.3 °C
S. Maria di Zevio Loc. 3 Ponti (VR) 10/08/22 04.05 23.9 °C 53 % 13.7 °C 1020.3 hPa 0.0 Km/h ENE 0.0 mm  21.7 °C 25.0 °C
S. Maria Maddalena (RO) 10/08/22 04.06 20.9 °C 84 % 18.1 °C 1017.8 hPa 0.0 Km/h NE 0.0 mm  20.8 °C 23.7 °C
S. Mauro di Saline (VR) 10/08/22 04.05 21.6 °C 54 % 11.9 °C 1019.5 hPa 11.5 Km/h NNE 0.0 mm  21.4 °C 23.1 °C
S. Zeno di Mont. Prada (VR) 10/08/22 04.00 15.3 °C 48 % 4.4 °C 1018.6 hPa 0.0 Km/h E 0.0 mm  15.2 °C 18.7 °C
S. Zeno di Mont. 2 (VR) 10/08/22 03.46 22.5 °C 48 % 10.8 °C 1017.7 hPa 16.2 Km/h E 0.0 mm  22.3 °C 23.6 °C
Sacile (PN) 10/08/22 03.59 22.6 °C 55 % 13.1 °C 1019.8 hPa 1.6 Km/h NE 0.0 mm  22.6 °C 24.1 °C
Sacile2 (PN) 10/08/22 04.05 18.8 °C 71 % 13.4 °C 1020.1 hPa 0.0 Km/h --- 0.0 mm  18.4 °C 21.4 °C
Salcedo (VI) 10/08/22 04.06 22.8 °C 49 % 11.5 °C 1021.0 hPa 4.3 Km/h SE 0.0 mm  22.8 °C 25.0 °C
San Benedetto del Tronto (AP) 10/08/22 04.08 24.8 °C 71 % 19.2 °C 1017.0 hPa 5.4 Km/h WNW 0.0 mm  24.6 °C 25.3 °C
San Bortolo ARPAV (VR) 10/08/22 04.00 17.7 °C  %  °C  hPa 6.8 Km/h NNE 0.0 mm  17.7 °C 19.5 °C
San Cataldo (CL) 10/08/22 04.08 20.8 °C 56 % 11.7 °C 1017.3 hPa 6.5 Km/h NE 0.0 mm  19.6 °C 21.4 °C
San Giovanni la Punta Trappeto (CT) 10/08/22 03.59 22.6 °C 63 % 15.2 °C 1014.4 hPa 6.4 Km/h NNW 0.0 mm  22.5 °C 24.1 °C
San Pietro di Rosā (VI) 10/08/22 04.05 22.7 °C 55 % 13.2 °C 1023.2 hPa 3.2 Km/h N 0.0 mm  22.7 °C 25.2 °C
San Pietro in Cariano (VR) 10/08/22 03.54 25.5 °C 37 % 9.9 °C 1019.6 hPa 7.8 Km/h NNE 0.0 mm  23.2 °C 25.6 °C
San Pietro in Cariano ARPAV (VR) 08/08/22 06.00 19.5 °C 88 % 17.5 °C  hPa 0.0 Km/h 0.0 mm  19.4 °C 21.3 °C
San Salvo3 (CH) 10/08/22 04.08 23.6 °C 67 % 17.1 °C 1012.9 hPa 16.1 Km/h NW 0.0 mm  23.6 °C 24.1 °C
San Vito di Negrar (VR) 10/08/22 04.05 25.4 °C 46 % 12.9 °C 1019.9 hPa 1.6 Km/h W 0.0 mm  23.7 °C 26.8 °C
San Zeno di Mont. Loc. Castello (VR) 10/08/22 04.05 20.2 °C 62 % 12.8 °C 1017.4 hPa 4.8 Km/h W 0.0 mm  20.2 °C 22.0 °C
Sant'Apollinare ARPAV (RO) 10/08/22 04.00 19.6 °C 100 % 19.6 °C  hPa 3.2 Km/h N 0.0 mm  18.3 °C 20.0 °C
Santa Maria di Negrar (VR) 10/08/22 03.54 25.6 °C 47 % 13.5 °C 1020.0 hPa 4.2 Km/h NNE 0.0 mm  24.4 °C 26.4 °C
Santo Stefano di Cadore ARPAV (BL) 10/08/22 04.00 11.6 °C 100 % 11.6 °C  hPa 0.4 Km/h SE 0.0 mm  11.6 °C 13.7 °C
Sappada ARPAV (BL) 10/08/22 04.00 10.6 °C 95 % 9.8 °C  hPa 0.0 Km/h SE 0.0 mm  10.6 °C 13.0 °C
Sarcedo (VI) 10/08/22 04.05 21.6 °C 60 % 13.5 °C 1017.6 hPa 0.0 Km/h WNW 0.0 mm  21.6 °C 26.8 °C
Schio (VI) 10/08/22 03.50 20.9 °C 66 % 14.4 °C 1020.7 hPa 4.8 Km/h NW 0.0 mm  20.9 °C 23.7 °C
Seremange Erzange (Moselle) 10/08/22 04.07 18.8 °C 61 % 11.1 °C 1023.2 hPa 0.0 Km/h W 0.0 mm  18.9 °C 22.8 °C
Sinnai (CA) 10/08/22 04.06 25.4 °C 69 % 19.3 °C 1014.4 hPa 0.0 Km/h NNE 0.0 mm  25.4 °C 27.1 °C
Soave Borgo Bassano (VR) 10/08/22 04.09 25.4 °C 44 % 12.3 °C 1018.7 hPa 9.7 Km/h NE 0.0 mm  23.8 °C 27.1 °C
Sorgā ARPAV (VR) 10/08/22 04.00 21.5 °C 73 % 16.4 °C  hPa 8.3 Km/h NE 0.0 mm  20.2 °C 21.5 °C
Soriso (NO) 10/08/22 04.00 22.3 °C 81 % 18.9 °C 1018.3 hPa 0.0 Km/h WNW 0.0 mm  22.3 °C 23.3 °C
Stiore - Monteveglio (BO) 10/08/22 04.09 19.1 °C 75 % 14.5 °C 1015.6 hPa 0.0 Km/h SSE 0.0 mm  18.8 °C 20.9 °C
Taio Mollaro (TN) 10/08/22 04.08 18.1 °C 83 % 15.2 °C 1018.9 hPa 0.0 Km/h NNW 0.0 mm  17.7 °C 20.4 °C
Tambre Loc. Frassinei (BL) 10/08/22 03.56 16.1 °C 73 % 10.7 °C 0.0 hPa 0.0 Km/h - 0.0 mm  16.1 °C 18.8 °C
Taranto (TA) 10/08/22 04.09 25.1 °C 73 % 19.9 °C 1010.1 hPa 0.0 Km/h WNW 0.0 mm  25.1 °C 25.9 °C
Teolo ARPAV (PD) 10/08/22 04.00 21.6 °C 56 % 12.4 °C 1019.7 hPa 6.5 Km/h NNE 0.0 mm  21.6 °C 22.9 °C
Todi (PG) 10/08/22 04.05 19.7 °C 54 % 10.1 °C 1016.0 hPa 6.0 Km/h N 0.0 mm  19.7 °C 21.3 °C
Tombolo (PD) 10/08/22 04.09 22.2 °C 62 % 14.5 °C 1019.5 hPa 0.0 Km/h NNE 0.0 mm  22.2 °C 25.3 °C
Torrita di Siena (SI) 10/08/22 04.10 18.4 °C 79 % 14.7 °C 1018.0 hPa 0.0 Km/h --- 0.0 mm  18.4 °C 21.2 °C
Trambileno (TN) 10/08/22 04.05 20.0 °C 60 % 12.0 °C 1016.9 hPa 0.0 Km/h WSW 0.0 mm  19.0 °C 22.0 °C
Trento (TN) 10/08/22 04.09 23.8 °C 63 % 16.3 °C 1018.3 hPa 9.7 Km/h NE 0.0 mm  23.8 °C 25.6 °C
Treviso (TV) 10/08/22 04.06 21.6 °C 52 % 11.3 °C 1010.3 hPa 1.0 Km/h NE 0.0 mm  21.6 °C 24.1 °C
Treviso ARPAV (TV) 10/08/22 04.00 20.3 °C 58 % 11.8 °C  hPa 0.0 Km/h 0.0 mm  20.0 °C 22.3 °C
Tribano ARPAV (PD) 10/08/22 04.00 19.7 °C 77 % 15.5 °C  hPa 4.7 Km/h NNW 0.0 mm  19.6 °C 19.9 °C
Turcati ARPAV (VI) 10/08/22 04.00 17.2 °C 76 % 12.9 °C  hPa 0.0 Km/h 0.0 mm  17.2 °C 19.8 °C
Val Lastaro (VI) 10/08/22 04.05 14.1 °C 74 % 9.4 °C 1018.2 hPa 0.0 Km/h NNW 0.0 mm  14.1 °C 17.7 °C
Valdagno (VI) 10/08/22 04.05 20.0 °C 60 % 12.0 °C 1018.4 hPa 1.1 Km/h N 0.0 mm  20.0 °C 22.9 °C
Valdobbiadene San Pietro di Barbozza (TV) 10/08/22 04.05 21.3 °C 55 % 11.9 °C 1022.3 hPa 8.0 Km/h NNW 0.0 mm  20.8 °C 24.9 °C
Valeggio sul Mincio ARPAV (VR) 07/08/22 02.00 23.6 °C 68 % 17.3 °C  hPa 2.9 Km/h NNE 0.0 mm  21.7 °C 23.6 °C
Valentano (VT) 10/08/22 04.10 20.2 °C 74 % 15.6 °C 1014.4 hPa 6.5 Km/h NE 0.0 mm  20.2 °C 21.9 °C
Valenza (AL) 10/08/22 04.09 22.6 °C 72 % 17.3 °C 1016.7 hPa 4.8 Km/h N 0.0 mm  22.6 °C 25.4 °C
Valle del Cadore ARPAV (BL) 10/08/22 04.00 14.9 °C  %  °C  hPa 1.4 Km/h WNW 0.0 mm  14.9 °C 17.4 °C
Valli del Pasubio ARPAV (VI) 10/08/22 04.00 17.9 °C 65 % 11.2 °C  hPa 9.4 Km/h NNW 0.0 mm  17.9 °C 20.8 °C
Vangadizza ARPAV (VR) 07/08/22 06.00 21.0 °C 92 % 19.6 °C  hPa 9.7 Km/h NNE 0.6 mm  21.0 °C 23.8 °C
Vazzola - Tezze ARPAV (TV) 10/08/22 04.00 18.2 °C 74 % 13.5 °C  hPa 0.4 Km/h NNW 0.0 mm  18.2 °C 24.5 °C
Venezia - Istituto Cavanis ARPAV (VE) 10/08/22 04.00 25.3 °C 52 % 14.7 °C 1018.7 hPa 9.7 Km/h NNE 0.0 mm  25.3 °C 27.3 °C
Verona Bgo Roma Comune ''Brugnoli'' (VR) 10/08/22 04.10 25.1 °C 38 % 9.8 °C 1018.8 hPa 1.3 Km/h NE 0.0 mm  24.2 °C 25.8 °C
Verona Bgo Venezia (iz3sly) (VR) 10/08/22 04.05 25.7 °C 45 % 12.9 °C 1017.3 hPa 0.0 Km/h SE 0.0 mm  23.6 °C 26.8 °C
Verona Cadidavid2 (VR) 10/08/22 04.00 25.0 °C 47 % 12.9 °C 1018.2 hPa 5.8 Km/h ENE 0.0 mm  20.9 °C 25.1 °C
Verona Centro Comune ''Bellavite'' (VR) 10/08/22 04.10 26.3 °C 42 % 12.3 °C 1019.3 hPa 4.3 Km/h ESE 0.0 mm  26.3 °C 27.4 °C
Verona Croce Bianca (VR) 10/08/22 04.10 25.4 °C 47 % 13.3 °C 1019.4 hPa 1.6 Km/h N 0.0 mm  20.4 °C 25.9 °C
Verona Golosine (VR) 10/08/22 04.10 25.9 °C 44 % 12.7 °C 1019.9 hPa 7.9 Km/h ENE 0.0 mm  25.3 °C 26.6 °C
Vicenza Moracchino (VI) 10/08/22 04.09 22.6 °C 60 % 14.4 °C 1018.5 hPa 11.3 Km/h NW 0.0 mm  22.6 °C 25.2 °C
Vicenza S. Lazzaro (VI) 10/08/22 04.05 24.0 °C 55 % 14.4 °C 1018.1 hPa 6.0 Km/h NE 0.0 mm  24.0 °C 26.0 °C
Vicenza San Gaetano (VI) 09/08/22 22.31 26.3 °C 58 % 17.4 °C 1017.9 hPa 0.0 Km/h E 0.0 mm  21.1 °C 32.7 °C
Vidor (TV) 10/08/22 04.05 19.6 °C 71 % 14.2 °C 1019.5 hPa 0.4 Km/h SSW 0.0 mm  19.6 °C 23.4 °C
Vieste (FG) 10/08/22 04.09 25.8 °C 76 % 21.3 °C 1014.9 hPa 8.2 Km/h W 0.0 mm  25.8 °C 26.3 °C
Vigardolo (VI) 10/08/22 04.05 23.1 °C 50 % 12.1 °C 1018.0 hPa 0.0 Km/h N 0.0 mm  22.9 °C 24.9 °C
Vigasio (VR) 10/08/22 04.00 22.6 °C 63 % 15.2 °C 1019.7 hPa 0.0 Km/h --- 0.0 mm  22.6 °C 25.6 °C
Vigasio2 (VR) 10/08/22 04.05 22.4 °C 64 % 15.3 °C 1019.4 hPa 8.6 Km/h ESE 0.0 mm  20.4 °C 22.4 °C
Villabartolomea (VR) 10/08/22 04.05 21.3 °C 72 % 16.0 °C 1017.3 hPa 4.8 Km/h NE 0.0 mm  20.6 °C 22.1 °C
Villabartolomea2 (VR) 10/08/22 04.05 20.6 °C 75 % 16.0 °C 1018.8 hPa 3.2 Km/h ENE 0.0 mm  19.4 °C 21.4 °C
Villafranca di Verona (VR) 10/08/22 04.04 23.7 °C 61 % 15.7 °C 0.0 hPa 0.2 Km/h SSW 0.0 mm  23.1 °C 25.6 °C
Villafranca di Verona ARPAV (VR) 10/08/22 04.00 18.9 °C 86 % 16.5 °C  hPa 2.2 Km/h NE 0.0 mm  18.9 °C 20.6 °C
Villanova ARPAV (BL) 10/08/22 04.00 13.1 °C 100 % 13.1 °C  hPa 0.7 Km/h NNW 0.0 mm  13.1 °C 16.1 °C
Villar Perosa (TO) 10/08/22 04.04 18.8 °C 88 % 16.7 °C 1018.6 hPa 0.0 Km/h NE 1.6 mm  18.8 °C 22.0 °C
Viozene Toria (CN) 10/08/22 04.05 17.4 °C 60 % 9.6 °C 1023.6 hPa 6.0 Km/h SE 0.0 mm  14.8 °C 17.4 °C
Viterbo Santa Barbara (VT) 09/08/22 23.02 22.4 °C 69 % 16.5 °C 1015.1 hPa 0.0 Km/h NE 0.0 mm  19.4 °C 27.6 °C
Viterbo Strada Bagni (VT) 09/08/22 14.26 27.6 °C 58 % 18.6 °C 1014.4 hPa 6.4 Km/h E 0.0 mm  20.5 °C 27.7 °C
Vitorchiano Pallone (VT) 09/08/22 19.00 25.4 °C 55 % 15.7 °C 1013.3 hPa 6.4 Km/h E 0.0 mm  19.5 °C 25.9 °C
Vittorio Veneto (TV) 10/08/22 00.25 22.4 °C 65 % 15.6 °C 1019.6 hPa 0.0 Km/h N 0.0 mm  22.4 °C 22.6 °C
Vittorio Veneto ARPAV (TV) 10/08/22 04.00 20.3 °C 65 % 13.5 °C  hPa 3.6 Km/h NW 0.0 mm  20.3 °C 21.8 °C
Vittorio Veneto Fraz. Borgo Colesei (TV) 10/08/22 03.54 18.2 °C 73 % 13.3 °C 1022.6 hPa 0.0 Km/h ENE 0.0 mm  18.0 °C 22.9 °C
Vittorio Veneto Fraz. Ceneda (TV) 10/08/22 04.04 20.5 °C 61 % 12.8 °C 1018.3 hPa 2.2 Km/h E 0.0 mm  20.4 °C 23.1 °C
Vittorio Veneto Parco Fenderl (TV) 10/08/22 00.25 21.5 °C 68 % 15.3 °C 1021.0 hPa 0.0 Km/h NNW 0.0 mm  21.5 °C 21.8 °C
Volpago del Montello (TV) 10/08/22 04.00 19.7 °C 66 % 13.2 °C 1019.5 hPa 0.0 Km/h --- 0.0 mm  19.7 °C 23.9 °C
Volpago del Montello ARPAV (TV) 10/08/22 04.00 21.2 °C 55 % 11.8 °C  hPa 9.0 Km/h N 0.0 mm  21.2 °C 23.6 °C
Zevio (VR) 10/08/22 04.06 24.9 °C 43 % 11.5 °C 1017.1 hPa 5.0 Km/h N 0.0 mm  21.7 °C 25.1 °C
 
(*) = Precipitazioni nelle ultime 24h.
Dati non aggiornati nelle ultime 2h.
   
In collaborazione con:
 
Top! Top!